createdAt,value
2022-09-16T00:01:47.918Z,2.93
2022-09-16T00:06:56.125Z,2.94
2022-09-16T00:12:02.816Z,2.94
2022-09-16T00:17:10.257Z,2.93
2022-09-16T00:22:18.202Z,2.94
2022-09-16T00:27:25.079Z,2.93
2022-09-16T00:32:32.796Z,2.93
2022-09-16T00:37:40.972Z,2.93
2022-09-16T00:42:50.296Z,2.95
2022-09-16T00:47:59.485Z,2.93
2022-09-16T00:53:07.550Z,2.93
2022-09-16T00:58:15.662Z,2.94
2022-09-16T01:03:24.356Z,2.94
2022-09-16T01:08:32.273Z,2.94
2022-09-16T01:13:40.477Z,2.94
2022-09-16T01:18:47.932Z,2.93
2022-09-16T01:23:56.116Z,2.93
2022-09-16T01:29:03.725Z,2.92
2022-09-16T01:34:12.111Z,2.93
2022-09-16T01:39:19.881Z,2.92
2022-09-16T01:44:28.060Z,2.93
2022-09-16T01:49:35.728Z,2.92
2022-09-16T01:54:42.984Z,2.92
2022-09-16T01:59:51.193Z,2.92
2022-09-16T02:04:58.551Z,2.92
2022-09-16T02:10:05.742Z,2.94
2022-09-16T02:15:13.664Z,2.93
2022-09-16T02:20:21.494Z,2.93
2022-09-16T02:25:29.208Z,2.92
2022-09-16T02:30:36.990Z,2.93
2022-09-16T02:35:44.378Z,2.92
2022-09-16T02:40:53.350Z,2.92
2022-09-16T02:45:59.955Z,2.92
2022-09-16T02:51:07.740Z,2.92
2022-09-16T02:56:15.648Z,2.92
2022-09-16T03:01:23.507Z,2.92
2022-09-16T03:06:30.705Z,2.93
2022-09-16T03:11:38.481Z,2.92
2022-09-16T03:16:47.912Z,2.92
2022-09-16T03:21:56.329Z,2.91
2022-09-16T03:27:03.968Z,2.92
2022-09-16T03:32:11.328Z,2.92
2022-09-16T03:37:19.322Z,2.92
2022-09-16T03:42:27.594Z,2.91
2022-09-16T03:47:34.044Z,2.92
2022-09-16T03:52:41.391Z,2.92
2022-09-16T03:57:49.706Z,2.92
2022-09-16T04:02:58.642Z,2.92
2022-09-16T04:08:06.265Z,2.92
2022-09-16T04:13:13.168Z,2.92
2022-09-16T04:18:21.041Z,2.91
2022-09-16T04:23:29.085Z,2.92
2022-09-16T04:28:36.695Z,2.91
2022-09-16T04:33:44.963Z,2.91
2022-09-16T04:38:53.250Z,2.91
2022-09-16T04:44:00.855Z,2.91
2022-09-16T04:49:09.161Z,2.91
2022-09-16T04:54:16.115Z,2.91
2022-09-16T04:59:23.244Z,2.92
2022-09-16T05:04:30.881Z,2.92
2022-09-16T05:09:38.652Z,2.92
2022-09-16T05:14:47.592Z,2.92
2022-09-16T05:19:56.443Z,2.92
2022-09-16T05:25:03.608Z,2.92
2022-09-16T05:30:11.413Z,2.92
2022-09-16T05:35:19.851Z,2.92
2022-09-16T05:40:27.335Z,2.92
2022-09-16T05:45:35.576Z,2.92
2022-09-16T05:50:44.203Z,2.92
2022-09-16T05:55:51.835Z,2.92
2022-09-16T06:00:59.933Z,2.92
2022-09-16T06:06:08.249Z,2.92
2022-09-16T06:11:17.003Z,2.92
2022-09-16T06:16:23.907Z,2.93
2022-09-16T06:21:32.888Z,2.93
2022-09-16T06:26:42.006Z,2.94
2022-09-16T06:31:48.739Z,2.93
2022-09-16T06:36:56.025Z,2.94
2022-09-16T06:42:03.131Z,2.92
2022-09-16T06:47:10.989Z,2.94
2022-09-16T06:52:18.884Z,2.94
2022-09-16T06:57:27.303Z,2.94
2022-09-16T07:02:34.460Z,2.95
2022-09-16T07:07:44.812Z,2.94
2022-09-16T07:12:51.495Z,2.95
2022-09-16T07:17:58.653Z,2.95
2022-09-16T07:23:06.501Z,2.95
2022-09-16T07:28:13.691Z,2.94
2022-09-16T07:33:22.301Z,2.95
2022-09-16T07:38:30.659Z,2.94
2022-09-16T07:43:39.138Z,2.94
2022-09-16T07:48:45.696Z,2.96
2022-09-16T07:53:53.869Z,2.95
2022-09-16T07:59:02.066Z,2.95
2022-09-16T08:04:08.629Z,2.96
2022-09-16T08:09:16.858Z,2.95
2022-09-16T08:14:25.891Z,2.96
2022-09-16T08:19:34.586Z,2.95
2022-09-16T08:24:41.815Z,2.95
2022-09-16T08:29:48.724Z,2.95
2022-09-16T08:34:56.442Z,2.96
2022-09-16T08:40:05.253Z,2.96
2022-09-16T08:45:12.268Z,2.96
2022-09-16T08:50:20.496Z,2.95
2022-09-16T08:55:26.994Z,2.95
2022-09-16T09:00:34.815Z,2.96
2022-09-16T09:05:43.164Z,2.96
2022-09-16T09:10:50.491Z,2.96
2022-09-16T09:15:58.502Z,2.96
2022-09-16T09:21:05.825Z,2.96
2022-09-16T09:26:13.377Z,2.96
2022-09-16T09:31:20.577Z,2.96
2022-09-16T09:36:29.026Z,2.95
2022-09-16T09:41:37.589Z,2.96
2022-09-16T09:46:44.592Z,2.95
2022-09-16T09:51:53.473Z,2.95
2022-09-16T09:57:01.310Z,2.96
2022-09-16T10:02:09.493Z,2.95
2022-09-16T10:07:18.487Z,2.96
2022-09-16T10:12:26.667Z,2.95
2022-09-16T10:17:34.407Z,2.96
2022-09-16T10:22:42.178Z,2.96
2022-09-16T10:27:50.571Z,2.96
2022-09-16T10:32:59.026Z,2.96
2022-09-16T10:38:06.885Z,2.97
2022-09-16T10:43:15.232Z,2.96
2022-09-16T10:48:23.101Z,2.96
2022-09-16T10:53:29.181Z,2.96
2022-09-16T10:58:38.242Z,2.97
2022-09-16T11:03:45.889Z,2.96
2022-09-16T11:08:52.680Z,2.97
2022-09-16T11:14:00.650Z,2.95
2022-09-16T11:19:08.124Z,2.96
2022-09-16T11:24:15.684Z,2.98
2022-09-16T11:29:23.484Z,2.96
2022-09-16T11:34:32.465Z,2.97
2022-09-16T11:39:40.036Z,2.98
2022-09-16T11:44:47.610Z,2.96
2022-09-16T11:49:54.743Z,2.97
2022-09-16T11:55:02.116Z,2.97
2022-09-16T12:00:09.989Z,2.96
2022-09-16T12:05:17.695Z,2.97
2022-09-16T12:10:24.354Z,2.96
2022-09-16T12:15:32.390Z,2.97
2022-09-16T12:20:39.845Z,2.96
2022-09-16T12:25:47.191Z,2.97
2022-09-16T12:30:54.386Z,2.97
2022-09-16T12:36:01.608Z,2.97
2022-09-16T12:41:09.253Z,2.97
2022-09-16T12:46:17.336Z,2.96
2022-09-16T12:51:23.787Z,2.96
2022-09-16T12:56:31.631Z,2.96
2022-09-16T13:01:38.329Z,2.96
2022-09-16T13:06:46.020Z,2.97
2022-09-16T13:11:54.606Z,2.97
2022-09-16T13:17:09.154Z,2.97
2022-09-16T13:22:17.734Z,2.97
2022-09-16T13:27:24.991Z,2.97
2022-09-16T13:32:33.981Z,2.97
2022-09-16T13:37:41.379Z,2.97
2022-09-16T13:42:49.119Z,2.97
2022-09-16T13:47:57.615Z,2.97
2022-09-16T13:53:04.323Z,2.97
2022-09-16T13:58:10.877Z,2.96
2022-09-16T14:03:17.381Z,2.96
2022-09-16T14:08:26.077Z,2.96
2022-09-16T14:13:34.562Z,2.97
2022-09-16T14:18:42.446Z,2.96
2022-09-16T14:23:49.372Z,2.96
2022-09-16T14:28:56.571Z,2.96
2022-09-16T14:34:04.479Z,2.96
2022-09-16T14:41:11.344Z,2.96
2022-09-16T14:46:17.219Z,2.95
2022-09-16T14:51:25.561Z,2.95
2022-09-16T14:56:33.037Z,2.96
2022-09-16T15:01:40.795Z,2.96
2022-09-16T15:06:47.986Z,2.95
2022-09-16T15:11:55.886Z,2.95
2022-09-16T15:17:04.205Z,2.95
2022-09-16T15:22:13.493Z,2.95
2022-09-16T15:27:21.814Z,2.96
2022-09-16T15:32:28.464Z,2.95
2022-09-16T15:37:36.788Z,2.95
2022-09-16T15:42:45.507Z,2.96
2022-09-16T15:47:54.166Z,2.95
2022-09-16T15:53:01.058Z,2.96
2022-09-16T15:58:09.279Z,2.96
2022-09-16T16:03:16.854Z,2.95
2022-09-16T16:08:24.245Z,2.95
2022-09-16T16:13:32.307Z,2.95
2022-09-16T16:18:40.175Z,2.94
2022-09-16T16:23:48.537Z,2.95
2022-09-16T16:28:56.585Z,2.94
2022-09-16T16:34:03.144Z,2.95
2022-09-16T16:39:11.227Z,2.95
2022-09-16T16:44:18.820Z,2.95
2022-09-16T16:49:26.477Z,2.93
2022-09-16T16:54:34.402Z,2.94
2022-09-16T16:59:42.985Z,2.94
2022-09-16T17:04:50.198Z,2.94
2022-09-16T17:09:58.032Z,2.94
2022-09-16T17:15:21.623Z,2.94
2022-09-16T17:20:29.239Z,2.94
2022-09-16T17:25:36.905Z,2.94
2022-09-16T17:30:44.091Z,2.94
2022-09-16T17:35:51.966Z,2.94
2022-09-16T17:40:59.400Z,2.94
2022-09-16T17:46:07.033Z,2.95
2022-09-16T17:51:15.967Z,2.94
2022-09-16T17:56:23.962Z,2.94
2022-09-16T18:01:31.142Z,2.94
2022-09-16T18:06:38.902Z,2.94
2022-09-16T18:11:48.106Z,2.94
2022-09-16T18:16:56.468Z,2.95
2022-09-16T18:22:03.727Z,2.95
2022-09-16T18:27:12.268Z,2.94
2022-09-16T18:32:20.112Z,2.94
2022-09-16T18:37:27.973Z,2.94
2022-09-16T18:42:35.149Z,2.94
2022-09-16T18:47:42.344Z,2.94
2022-09-16T18:52:48.895Z,2.94
2022-09-16T19:01:00.535Z,2.93
2022-09-16T19:06:05.729Z,2.93
2022-09-16T19:11:13.936Z,2.93
2022-09-16T19:16:21.380Z,2.94
2022-09-16T19:21:29.509Z,2.93
2022-09-16T19:26:36.402Z,2.93
2022-09-16T19:31:44.005Z,2.93
2022-09-16T19:36:51.977Z,2.93
2022-09-16T19:41:59.658Z,2.93
2022-09-16T19:47:07.414Z,2.93
2022-09-16T19:52:15.171Z,2.93
2022-09-16T19:57:22.822Z,2.93
2022-09-16T20:02:30.026Z,2.93
2022-09-16T20:07:37.212Z,2.94
2022-09-16T20:12:44.348Z,2.94
2022-09-16T20:17:51.665Z,2.93
2022-09-16T20:23:00.510Z,2.93
2022-09-16T20:28:09.445Z,2.93
2022-09-16T20:33:18.207Z,2.94
2022-09-16T20:38:25.718Z,2.93
2022-09-16T20:43:32.289Z,2.93
2022-09-16T20:48:40.579Z,2.93
2022-09-16T20:53:49.339Z,2.93
2022-09-16T20:58:56.908Z,2.93
2022-09-16T21:04:04.097Z,2.93
2022-09-16T21:09:11.295Z,2.92
2022-09-16T21:14:19.133Z,2.92
2022-09-16T21:19:27.500Z,2.92
2022-09-16T21:24:36.659Z,2.94
2022-09-16T21:29:44.454Z,2.94
2022-09-16T21:34:52.939Z,2.92
2022-09-16T21:39:59.617Z,2.93
2022-09-16T21:45:07.205Z,2.93
2022-09-16T21:50:14.354Z,2.93
2022-09-16T21:55:22.586Z,2.94
2022-09-16T22:00:30.398Z,2.92
2022-09-16T22:05:37.592Z,2.93
2022-09-16T22:10:45.409Z,2.93
2022-09-16T22:15:53.161Z,2.92
2022-09-16T22:21:01.448Z,2.92
2022-09-16T22:26:09.187Z,2.92
2022-09-16T22:31:15.468Z,2.93
2022-09-16T22:36:23.300Z,2.92
2022-09-16T22:41:31.685Z,2.92
2022-09-16T22:46:39.944Z,2.92
2022-09-16T22:51:48.448Z,2.92
2022-09-16T22:56:56.804Z,2.92
2022-09-16T23:02:03.788Z,2.92
2022-09-16T23:07:10.980Z,2.92
2022-09-16T23:12:19.225Z,2.91
2022-09-16T23:17:27.131Z,2.92
2022-09-16T23:22:34.523Z,2.91
2022-09-16T23:27:44.209Z,2.92
2022-09-16T23:32:51.655Z,2.93
2022-09-16T23:37:59.140Z,2.93
2022-09-16T23:43:05.860Z,2.92
2022-09-16T23:48:14.092Z,2.93
2022-09-16T23:53:22.176Z,2.91
2022-09-16T23:58:29.882Z,2.92
